Time;durP1;ratioP1;P1;durP2;ratioP2;P2;SDS_P1;SDS_P2;PMS_P1;PMS_P2;Temp;Humidity;BMP_temperature;BMP_pressure;BME280_temperature;BME280_humidity;BME280_pressure;Samples;Min_cycle;Max_cycle;Signal;HPM_P1;HPM_P2
2022/04/08 00:01:25;;;;;;;;;0.00;0.00;;;;;22.96;64.40;100151.53;5054644;28;45497;-61
2022/04/08 00:03:52;;;;;;;;;1.00;0.00;;;;;22.95;64.34;100147.94;5069082;28;45606;-62
2022/04/08 00:06:18;;;;;;;;;1.00;0.00;;;;;22.96;64.68;100147.03;5072186;28;46233;-61
2022/04/08 00:08:44;;;;;;;;;0.00;0.00;;;;;22.96;64.49;100144.34;5068717;28;45479;-60
2022/04/08 00:11:10;;;;;;;;;0.00;0.00;;;;;22.96;64.58;100133.56;5078863;28;45581;-63
2022/04/08 00:13:35;;;;;;;;;1.00;0.00;;;;;22.97;64.78;100142.50;5077994;28;45409;-61
2022/04/08 00:16:00;;;;;;;;;2.00;0.00;;;;;22.98;64.81;100144.25;5070398;28;52947;-61
2022/04/08 00:18:26;;;;;;;;;0.00;0.00;;;;;22.96;64.67;100135.38;5078058;28;45372;-60
2022/04/08 00:20:51;;;;;;;;;0.00;0.00;;;;;22.97;64.85;100132.59;5070862;28;46750;-60
2022/04/08 00:23:17;;;;;;;;;1.00;0.00;;;;;22.98;64.87;100134.34;5077488;28;45701;-62
2022/04/08 00:25:42;;;;;;;;;0.67;0.00;;;;;22.94;64.71;100127.38;5073285;28;47579;-61
2022/04/08 00:28:07;;;;;;;;;0.00;0.00;;;;;22.94;64.83;100135.44;5078760;28;46206;-61
2022/04/08 00:30:33;;;;;;;;;0.00;0.00;;;;;22.94;64.93;100118.41;5070467;28;49364;-60
2022/04/08 00:32:58;;;;;;;;;1.00;0.00;;;;;22.97;64.86;100132.59;5078906;28;45573;-61
2022/04/08 00:35:24;;;;;;;;;0.00;0.00;;;;;22.97;64.58;100135.31;5078654;28;46383;-61
2022/04/08 00:37:50;;;;;;;;;0.00;0.00;;;;;22.97;64.94;100132.59;5078559;28;45222;-60
2022/04/08 00:40:16;;;;;;;;;0.33;0.00;;;;;22.98;65.03;100131.66;5071795;28;45518;-63
2022/04/08 00:42:42;;;;;;;;;0.00;0.00;;;;;22.97;64.90;100123.66;5078606;28;45532;-62
2022/04/08 00:45:09;;;;;;;;;0.67;0.00;;;;;22.99;65.06;100121.75;5073525;28;47962;-62
2022/04/08 00:47:36;;;;;;;;;0.00;0.00;;;;;22.98;64.88;100117.31;5060301;28;46060;-61
2022/04/08 00:50:03;;;;;;;;;1.00;0.00;;;;;22.99;64.95;100119.06;5074919;28;45350;-61
2022/04/08 00:52:30;;;;;;;;;0.00;0.00;;;;;23.00;65.34;100116.28;5076742;28;45534;-61
2022/04/08 00:54:56;;;;;;;;;1.00;1.00;;;;;22.99;65.23;100111.84;5071764;28;46714;-61
2022/04/08 00:57:21;;;;;;;;;0.00;0.00;;;;;23.01;65.12;100111.78;5079277;28;45478;-60
2022/04/08 00:59:46;;;;;;;;;0.00;0.00;;;;;23.01;65.44;100114.47;5078034;28;45487;-61
2022/04/08 01:02:12;;;;;;;;;0.00;0.00;;;;;23.03;65.05;100117.09;5077544;28;45509;-60
2022/04/08 01:04:38;;;;;;;;;0.00;0.00;;;;;23.03;65.26;100122.47;5058926;28;47168;-63
2022/04/08 01:07:03;;;;;;;;;0.00;0.00;;;;;23.03;65.33;100114.41;5069191;28;45550;-60
2022/04/08 01:09:29;;;;;;;;;2.00;0.00;;;;;23.03;65.10;100104.50;5073899;28;45511;-61
2022/04/08 01:11:55;;;;;;;;;0.00;0.00;;;;;22.99;65.13;100106.47;5078343;28;45388;-63
2022/04/08 01:14:21;;;;;;;;;0.67;0.00;;;;;23.05;65.20;100112.47;5077806;28;51695;-62
2022/04/08 01:16:46;;;;;;;;;0.00;0.00;;;;;23.04;65.19;100111.63;5058893;28;45399;-61
2022/04/08 01:19:12;;;;;;;;;1.00;0.00;;;;;23.03;65.28;100104.50;5077443;28;45499;-63
2022/04/08 01:21:37;;;;;;;;;0.00;0.00;;;;;23.02;65.40;100100.06;5078394;28;45473;-61
2022/04/08 01:24:03;;;;;;;;;0.00;0.00;;;;;23.04;65.09;100094.59;5077731;28;47507;-63
2022/04/08 01:26:28;;;;;;;;;0.33;0.00;;;;;23.05;65.54;100097.19;5077741;28;45451;-61
2022/04/08 01:28:55;;;;;;;;;0.00;0.00;;;;;23.05;65.68;100102.56;5073087;28;45571;-63
2022/04/08 01:31:23;;;;;;;;;0.00;0.00;;;;;23.05;65.29;100099.88;5073981;28;45485;-60
2022/04/08 01:33:52;;;;;;;;;0.33;0.00;;;;;23.06;65.39;100095.38;5077445;28;47808;-62
2022/04/08 01:36:18;;;;;;;;;0.00;0.00;;;;;23.04;65.51;100086.50;5077741;28;45304;-63
2022/04/08 01:38:43;;;;;;;;;0.00;0.00;;;;;23.06;65.37;100092.66;5076238;28;45532;-62
2022/04/08 01:41:08;;;;;;;;;3.00;0.00;;;;;23.06;65.22;100085.47;5073326;28;45536;-63
2022/04/08 01:43:34;;;;;;;;;0.00;0.00;;;;;23.05;65.59;100083.72;5077472;28;51718;-60
2022/04/08 01:46:00;;;;;;;;;0.00;0.00;;;;;23.06;65.32;100079.22;5055279;28;45548;-64
2022/04/08 01:48:25;;;;;;;;;0.00;0.00;;;;;23.05;65.20;100080.16;5052209;28;45504;-61
2022/04/08 01:50:50;;;;;;;;;0.00;0.00;;;;;23.07;65.37;100075.59;5050889;28;45506;-61
2022/04/08 01:53:16;;;;;;;;;0.00;0.00;;;;;23.04;65.42;100063.13;5051811;28;46704;-61
2022/04/08 01:55:41;;;;;;;;;1.00;0.00;;;;;23.06;65.21;100072.00;5056282;28;45415;-63
2022/04/08 01:58:07;;;;;;;;;1.33;0.00;;;;;23.03;65.40;100055.16;5048315;28;45192;-60
2022/04/08 02:00:32;;;;;;;;;1.00;0.00;;;;;23.05;65.71;100070.25;5056804;28;45410;-60
2022/04/08 02:02:58;;;;;;;;;1.00;0.00;;;;;23.05;65.58;100056.81;5049873;28;46496;-61
2022/04/08 02:05:23;;;;;;;;;0.00;0.00;;;;;23.04;65.45;100054.19;5053618;28;45400;-62
2022/04/08 02:07:49;;;;;;;;;0.00;0.00;;;;;23.05;65.38;100062.19;5051750;28;45354;-60
2022/04/08 02:10:14;;;;;;;;;0.00;0.00;;;;;23.04;65.48;100071.22;5052202;28;45273;-60
2022/04/08 02:12:40;;;;;;;;;0.00;0.00;;;;;23.04;66.09;100075.75;5056863;28;45972;-63
2022/04/08 02:15:06;;;;;;;;;3.00;0.00;;;;;23.03;65.52;100065.94;5057026;28;45438;-59
2022/04/08 02:17:32;;;;;;;;;1.00;0.00;;;;;23.03;65.89;100055.16;5055726;28;45463;-61
2022/04/08 02:19:58;;;;;;;;;0.00;0.00;;;;;23.00;65.97;100046.25;5056934;28;45558;-59
2022/04/08 02:22:25;;;;;;;;;0.00;0.00;;;;;23.03;65.96;100057.84;5049271;28;45580;-60
2022/04/08 02:24:50;;;;;;;;;1.00;0.00;;;;;23.03;65.72;100063.22;5054391;28;45225;-63
2022/04/08 02:27:16;;;;;;;;;0.00;0.00;;;;;23.04;65.89;100062.28;5050073;28;45383;-63
2022/04/08 02:29:42;;;;;;;;;2.00;0.00;;;;;23.01;65.75;100052.56;5055065;28;45668;-60
2022/04/08 02:32:09;;;;;;;;;0.00;0.00;;;;;23.03;65.55;100050.63;5043300;28;47464;-63
2022/04/08 02:34:36;;;;;;;;;0.00;0.00;;;;;23.02;65.62;100043.50;5054881;28;45498;-60
2022/04/08 02:37:03;;;;;;;;;1.00;0.00;;;;;22.99;65.68;100035.59;5056102;28;45482;-62
2022/04/08 02:41:57;;;;;;;;;0.00;0.00;;;;;23.00;65.91;100043.56;5197402;22;45977;-62
2022/04/08 02:44:23;;;;;;;;;0.00;0.00;;;;;22.99;65.52;100027.50;5056841;28;45394;-60
2022/04/08 02:46:49;;;;;;;;;1.00;0.00;;;;;23.00;65.44;100030.09;5050233;28;45284;-60
2022/04/08 02:49:14;;;;;;;;;1.00;0.00;;;;;23.01;66.07;100031.00;5056002;28;45625;-61
2022/04/08 02:51:39;;;;;;;;;0.00;0.00;;;;;22.98;65.57;100023.94;5056077;28;45523;-61
2022/04/08 02:54:05;;;;;;;;;0.00;0.00;;;;;23.01;65.50;100014.84;5046835;28;45411;-61
2022/04/08 02:56:30;;;;;;;;;1.00;0.00;;;;;22.98;65.57;100012.31;5054201;28;46859;-64
2022/04/08 02:58:57;;;;;;;;;0.00;0.00;;;;;23.00;66.00;100011.25;5038256;28;45550;-61
2022/04/08 03:01:23;;;;;;;;;0.00;0.00;;;;;23.03;66.20;100006.69;5056362;28;46980;-61
2022/04/08 03:03:48;;;;;;;;;0.33;0.00;;;;;23.03;65.70;100009.38;5055821;28;45570;-61
2022/04/08 03:06:14;;;;;;;;;0.00;0.00;;;;;23.05;66.02;100004.78;5048796;28;45476;-61
2022/04/08 03:08:39;;;;;;;;;1.00;0.00;;;;;23.07;65.67;100002.88;5037257;28;45633;-61
2022/04/08 03:11:04;;;;;;;;;1.00;0.00;;;;;23.08;65.57;100004.63;5043534;28;46224;-61
2022/04/08 03:13:30;;;;;;;;;1.00;0.00;;;;;23.07;65.53;100000.19;5044259;28;45379;-60
2022/04/08 03:15:55;;;;;;;;;2.33;0.00;;;;;23.08;65.10;99999.22;5056925;28;45653;-60
2022/04/08 03:18:20;;;;;;;;;0.00;0.00;;;;;23.10;65.47;100002.69;5058519;28;45378;-60
2022/04/08 03:20:46;;;;;;;;;0.00;0.00;;;;;23.07;65.42;99992.97;5056089;28;53776;-60
2022/04/08 03:23:12;;;;;;;;;1.00;0.00;;;;;23.10;65.74;99995.50;5041787;28;45408;-61
2022/04/08 03:25:37;;;;;;;;;1.00;0.00;;;;;23.11;65.24;99999.03;5056363;28;45754;-61
2022/04/08 03:28:02;;;;;;;;;0.00;0.00;;;;;23.10;65.33;99998.19;5056550;28;45597;-63
2022/04/08 03:30:28;;;;;;;;;0.00;0.00;;;;;23.11;65.35;99990.97;5045580;28;46655;-62
2022/04/08 03:32:54;;;;;;;;;1.00;0.00;;;;;23.09;65.42;99990.19;5049690;28;45540;-61
2022/04/08 03:35:20;;;;;;;;;1.00;0.00;;;;;23.09;65.41;99988.38;5055496;28;45317;-60
2022/04/08 03:37:46;;;;;;;;;3.00;0.00;;;;;23.09;65.14;99992.88;5054123;28;45425;-61
2022/04/08 03:40:12;;;;;;;;;0.00;0.00;;;;;23.06;65.31;99988.53;5050015;28;45527;-60
2022/04/08 03:42:37;;;;;;;;;0.00;0.00;;;;;23.07;65.23;99981.34;5051746;28;45426;-63
2022/04/08 03:45:04;;;;;;;;;2.00;0.33;;;;;23.08;65.42;99983.06;5039413;28;46038;-61
2022/04/08 03:47:30;;;;;;;;;0.00;0.00;;;;;23.06;65.35;99969.66;5058982;28;45540;-61
2022/04/08 03:49:56;;;;;;;;;0.00;0.00;;;;;23.08;65.33;99967.78;5056548;28;47516;-63
2022/04/08 03:52:21;;;;;;;;;0.00;0.00;;;;;23.08;65.41;99950.75;5055749;28;45276;-60
2022/04/08 03:54:46;;;;;;;;;0.00;0.00;;;;;23.07;65.34;99949.03;5059431;28;45614;-62
2022/04/08 03:57:12;;;;;;;;;1.00;0.00;;;;;23.05;65.45;99949.09;5057745;28;45294;-61
2022/04/08 03:59:37;;;;;;;;;0.00;0.00;;;;;23.05;65.57;99927.53;5059043;28;46780;-61
2022/04/08 04:02:05;;;;;;;;;1.00;0.00;;;;;23.07;65.32;99927.50;5055553;28;45248;-61
2022/04/08 04:04:31;;;;;;;;;0.00;0.00;;;;;23.07;65.15;99930.19;5051617;28;45550;-61
2022/04/08 04:06:57;;;;;;;;;0.00;0.00;;;;;23.07;65.63;99922.09;5056805;28;45198;-62
2022/04/08 04:09:22;;;;;;;;;0.00;0.00;;;;;23.07;65.50;99922.09;5055620;28;47281;-60
2022/04/08 04:11:47;;;;;;;;;0.00;0.00;;;;;23.05;65.30;99919.47;5051244;28;45478;-63
2022/04/08 04:14:13;;;;;;;;;0.00;0.00;;;;;23.06;65.43;99914.94;5056386;28;45397;-61
2022/04/08 04:16:38;;;;;;;;;0.00;0.00;;;;;23.04;65.38;99909.66;5053405;28;45356;-60
2022/04/08 04:19:04;;;;;;;;;0.00;0.00;;;;;23.03;65.55;99904.38;5053667;28;46681;-60
2022/04/08 04:21:30;;;;;;;;;0.00;0.00;;;;;23.05;65.58;99905.13;5050628;28;45356;-63
2022/04/08 04:23:55;;;;;;;;;0.00;0.00;;;;;23.02;65.60;99892.72;5053301;28;45426;-61
2022/04/08 04:26:21;;;;;;;;;0.33;0.00;;;;;23.06;65.63;99893.41;5057048;28;45473;-60
2022/04/08 04:28:46;;;;;;;;;1.00;0.00;;;;;23.04;65.59;99890.81;5056670;28;46679;-62
2022/04/08 04:31:11;;;;;;;;;0.00;0.00;;;;;23.06;66.01;99878.13;5047201;28;46273;-62
2022/04/08 04:33:37;;;;;;;;;1.67;0.00;;;;;23.06;65.72;99878.13;5051456;28;45481;-63
2022/04/08 04:36:02;;;;;;;;;0.67;0.00;;;;;23.05;65.64;99871.00;5056482;28;45892;-60
2022/04/08 04:38:28;;;;;;;;;0.00;0.00;;;;;23.07;65.93;99868.25;5028648;28;47362;-62
2022/04/08 04:40:53;;;;;;;;;0.00;0.00;;;;;23.08;66.10;99867.28;5057802;28;48595;-61
2022/04/08 04:43:18;;;;;;;;;1.00;0.00;;;;;23.07;65.97;99861.03;5051098;28;45789;-63
2022/04/08 04:45:44;;;;;;;;;2.00;0.00;;;;;23.06;65.76;99844.94;5058005;28;45531;-63
2022/04/08 04:48:10;;;;;;;;;3.00;0.00;;;;;23.07;65.75;99841.31;5058283;28;46758;-63
2022/04/08 04:50:36;;;;;;;;;0.33;0.00;;;;;23.07;65.86;99825.16;5056779;28;45493;-61
2022/04/08 04:53:02;;;;;;;;;0.00;0.00;;;;;23.07;65.94;99822.47;5036714;28;45518;-64
2022/04/08 04:55:28;;;;;;;;;0.00;0.00;;;;;23.02;65.89;99803.00;5036363;28;45352;-61
2022/04/08 04:57:53;;;;;;;;;0.00;0.00;;;;;23.08;65.95;99817.00;5051714;28;46927;-63
2022/04/08 05:00:19;;;;;;;;;1.00;0.00;;;;;23.06;66.33;99810.78;5057958;28;45496;-63
2022/04/08 05:02:45;;;;;;;;;0.00;0.00;;;;;23.05;66.16;99794.75;5057387;28;45494;-60
2022/04/08 05:05:11;;;;;;;;;0.67;0.00;;;;;23.08;66.12;99795.44;5047075;28;45550;-61
2022/04/08 05:07:37;;;;;;;;;1.67;0.00;;;;;23.06;66.22;99786.56;5031184;28;46907;-64
2022/04/08 05:10:04;;;;;;;;;2.00;0.00;;;;;23.09;66.13;99789.09;5054689;28;45325;-62
2022/04/08 05:12:30;;;;;;;;;1.00;0.00;;;;;23.07;66.09;99774.88;5047272;28;45411;-62
2022/04/08 05:14:55;;;;;;;;;2.33;0.00;;;;;23.09;66.26;99775.63;5049344;28;45495;-60
2022/04/08 05:17:21;;;;;;;;;0.33;0.00;;;;;23.08;66.21;99763.13;5051799;28;47334;-61
2022/04/08 05:19:46;;;;;;;;;0.00;0.00;;;;;23.07;66.33;99760.53;5053269;28;45446;-62
2022/04/08 05:22:11;;;;;;;;;2.00;0.00;;;;;22.97;56.81;99750.28;5053722;28;45483;-65
2022/04/08 05:24:37;;;;;;;;;3.67;0.00;;;;;22.58;53.09;99745.28;5054521;28;45572;-65
2022/04/08 05:27:02;;;;;;;;;0.00;0.00;;;;;22.07;51.77;99746.31;5053943;28;45630;-66
2022/04/08 05:29:28;;;;;;;;;5.00;1.00;;;;;21.55;50.46;99755.28;5037266;28;46158;-63
2022/04/08 05:31:53;;;;;;;;;0.00;0.00;;;;;20.97;50.86;99746.56;5038315;28;45374;-63
2022/04/08 05:34:19;;;;;;;;;1.00;1.00;;;;;20.51;51.39;99741.63;5028213;28;45669;-64
2022/04/08 05:36:44;;;;;;;;;0.67;0.00;;;;;20.09;52.13;99739.09;5049539;28;46154;-64
2022/04/08 05:39:09;;;;;;;;;1.67;1.00;;;;;19.72;53.02;99724.66;5041148;28;46824;-62
2022/04/08 05:41:35;;;;;;;;;4.33;2.33;;;;;19.41;54.17;99725.09;5046861;28;45307;-65
2022/04/08 05:44:00;;;;;;;;;0.00;0.00;;;;;19.14;55.84;99724.44;5053425;28;45638;-64
2022/04/08 05:46:26;;;;;;;;;3.00;0.00;;;;;18.91;57.01;99717.38;5045537;28;46622;-64
2022/04/08 05:48:51;;;;;;;;;2.67;0.33;;;;;18.67;57.90;99708.50;5042647;28;45336;-64
2022/04/08 05:51:17;;;;;;;;;3.00;0.00;;;;;18.50;58.47;99711.84;5043792;28;45371;-65
2022/04/08 05:53:42;;;;;;;;;0.67;0.00;;;;;18.29;59.07;99702.88;5034780;28;45438;-65
2022/04/08 05:56:07;;;;;;;;;0.00;0.00;;;;;18.16;61.89;99711.41;5033706;28;47597;-63
2022/04/08 05:58:33;;;;;;;;;1.67;0.67;;;;;18.14;65.94;99703.44;5043859;28;45480;-60
2022/04/08 06:00:59;;;;;;;;;0.00;0.00;;;;;18.25;67.48;99698.56;5056901;28;45748;-60
2022/04/08 06:03:24;;;;;;;;;1.67;0.00;;;;;18.43;68.67;99685.41;5055333;28;45612;-59
2022/04/08 06:05:50;;;;;;;;;4.33;0.67;;;;;18.66;69.85;99679.16;5053791;28;47920;-59
2022/04/08 06:08:15;;;;;;;;;1.00;0.00;;;;;18.84;70.29;99676.63;5055605;28;45544;-63
2022/04/08 06:10:40;;;;;;;;;0.00;0.00;;;;;19.08;70.12;99665.84;5056445;28;45409;-61
2022/04/08 06:13:06;;;;;;;;;1.00;0.67;;;;;19.28;70.40;99664.97;5057641;28;45605;-60
2022/04/08 06:15:31;;;;;;;;;1.00;1.00;;;;;19.50;70.84;99662.25;5044446;28;46637;-61
2022/04/08 06:17:57;;;;;;;;;0.00;0.00;;;;;19.72;70.40;99662.19;5050512;28;45395;-61
2022/04/08 06:20:23;;;;;;;;;0.67;0.67;;;;;19.91;70.62;99652.34;5051266;28;45545;-62
2022/04/08 06:22:50;;;;;;;;;3.00;1.00;;;;;20.05;70.36;99646.38;5057007;28;45490;-64
2022/04/08 06:25:20;;;;;;;;;0.00;0.00;;;;;20.23;69.48;99640.13;5052620;28;47678;-65
2022/04/08 06:27:56;;;;;;;;;0.00;0.00;;;;;20.40;70.21;99636.66;5031488;28;46415;-59
2022/04/08 06:30:22;;;;;;;;;1.33;0.67;;;;;20.53;70.01;99615.50;5050822;28;45498;-64
2022/04/08 06:32:47;;;;;;;;;1.00;1.00;;;;;20.68;69.62;99617.41;5040377;28;45516;-62
2022/04/08 06:35:13;;;;;;;;;3.00;0.00;;;;;20.81;69.27;99618.53;5041643;28;52138;-61
2022/04/08 06:37:38;;;;;;;;;1.00;1.00;;;;;20.90;69.17;99610.00;5033210;28;45317;-63
2022/04/08 06:40:05;;;;;;;;;0.00;0.00;;;;;21.00;68.53;99614.91;5045231;28;45700;-64
2022/04/08 06:42:31;;;;;;;;;0.00;0.00;;;;;21.07;68.75;99609.16;5052803;28;45400;-61
2022/04/08 06:44:56;;;;;;;;;0.00;0.00;;;;;21.16;68.32;99607.81;5036509;28;47380;-61
2022/04/08 06:47:21;;;;;;;;;2.67;1.00;;;;;21.25;67.82;99610.00;5052906;28;45391;-62
2022/04/08 06:49:47;;;;;;;;;1.00;1.00;;;;;21.32;67.72;99607.91;5042162;28;50745;-64
2022/04/08 06:52:13;;;;;;;;;1.00;1.00;;;;;21.39;67.74;99609.31;5050480;28;45316;-65
2022/04/08 06:54:39;;;;;;;;;0.00;0.00;;;;;21.45;68.29;99609.84;5041501;28;47362;-63
2022/04/08 06:57:05;;;;;;;;;2.00;0.00;;;;;21.50;67.84;99612.28;5045971;28;45490;-63
2022/04/08 06:59:30;;;;;;;;;3.00;1.67;;;;;21.55;68.13;99609.38;5046254;28;45471;-63
2022/04/08 07:01:55;;;;;;;;;1.00;1.00;;;;;21.59;67.64;99597.50;5045319;28;45379;-63
2022/04/08 07:04:21;;;;;;;;;2.00;1.00;;;;;21.66;67.90;99606.97;5025149;28;48587;-64
2022/04/08 07:06:46;;;;;;;;;1.00;1.00;;;;;21.74;67.60;99609.25;5051836;28;48704;-62
2022/04/08 07:09:11;;;;;;;;;2.00;1.00;;;;;21.77;67.41;99607.25;5033871;28;45501;-62
2022/04/08 07:11:37;;;;;;;;;2.67;1.33;;;;;21.80;67.18;99590.09;5053180;28;45693;-64
2022/04/08 07:14:04;;;;;;;;;1.00;1.00;;;;;21.86;67.30;99590.63;5042659;28;46977;-62
2022/04/08 07:16:29;;;;;;;;;0.33;0.33;;;;;21.92;67.32;99594.78;5052222;28;45496;-62
2022/04/08 07:18:54;;;;;;;;;3.33;1.00;;;;;21.95;67.36;99575.81;5047054;28;45522;-63
2022/04/08 07:21:21;;;;;;;;;2.00;1.00;;;;;21.97;66.86;99576.59;5045176;28;45480;-63
2022/04/08 07:23:47;;;;;;;;;1.00;1.00;;;;;22.01;66.76;99561.16;5036757;28;47043;-63
2022/04/08 07:26:12;;;;;;;;;1.00;1.00;;;;;22.04;67.26;99559.16;5042981;28;51458;-63
2022/04/08 07:28:37;;;;;;;;;1.00;1.00;;;;;22.07;66.72;99564.38;5045677;28;45656;-66
2022/04/08 07:31:03;;;;;;;;;1.33;1.00;;;;;22.09;67.43;99549.00;5041119;28;45459;-65
2022/04/08 07:33:28;;;;;;;;;1.00;1.00;;;;;22.12;67.30;99540.81;5050595;28;47440;-65
2022/04/08 07:35:54;;;;;;;;;1.00;1.00;;;;;22.13;67.04;99536.28;5045313;28;45385;-66
2022/04/08 07:38:19;;;;;;;;;1.00;1.00;;;;;22.16;67.60;99531.63;5037125;28;45462;-62
2022/04/08 07:40:44;;;;;;;;;2.00;2.00;;;;;22.17;67.51;99519.03;5044042;28;45673;-66
2022/04/08 07:43:10;;;;;;;;;1.00;1.00;;;;;22.20;68.08;99516.16;5053986;28;45411;-67
2022/04/08 07:45:36;;;;;;;;;1.00;1.00;;;;;22.20;68.74;99497.34;5052246;28;45360;-65
2022/04/08 07:48:01;;;;;;;;;1.67;1.00;;;;;22.24;68.65;99485.44;5033544;28;45569;-63
2022/04/08 07:50:28;;;;;;;;;1.00;1.00;;;;;22.26;68.81;99488.03;5041054;28;45514;-64
2022/04/08 07:52:53;;;;;;;;;2.00;2.00;;;;;22.26;69.31;99466.53;5047069;28;45368;-62
2022/04/08 07:55:20;;;;;;;;;1.00;1.00;;;;;22.28;69.49;99468.19;5049002;28;45603;-64
2022/04/08 07:57:50;;;;;;;;;1.00;1.00;;;;;22.30;69.79;99458.19;5047346;28;45382;-64
2022/04/08 08:00:20;;;;;;;;;2.00;2.00;;;;;22.31;69.92;99445.63;5050067;28;45477;-65
2022/04/08 08:02:47;;;;;;;;;1.00;1.00;;;;;22.35;69.98;99445.34;5035063;28;47849;-66
2022/04/08 08:05:13;;;;;;;;;4.00;1.00;;;;;22.37;70.14;99439.88;5054401;28;47126;-65
2022/04/08 08:07:50;;;;;;;;;2.00;1.67;;;;;22.36;70.29;99430.94;5049655;28;45516;-65
2022/04/08 08:10:23;;;;;;;;;2.67;2.67;;;;;22.37;70.73;99421.94;5048862;28;45503;-66
2022/04/08 08:12:49;;;;;;;;;3.00;1.00;;;;;22.38;70.91;99426.34;5049095;28;46728;-67
2022/04/08 08:15:16;;;;;;;;;3.67;2.00;;;;;22.39;71.14;99430.75;5045290;28;45554;-64
2022/04/08 08:17:42;;;;;;;;;3.00;2.00;;;;;22.39;71.01;99419.13;5046066;28;45978;-67
2022/04/08 08:20:08;;;;;;;;;1.00;1.00;;;;;22.43;71.09;99421.56;5047350;28;45624;-66
2022/04/08 08:22:34;;;;;;;;;2.00;2.00;;;;;22.43;71.02;99436.84;5047841;28;46630;-70
2022/04/08 08:25:00;;;;;;;;;3.00;2.00;;;;;22.44;71.35;99419.72;5050440;28;45558;-64
2022/04/08 08:27:25;;;;;;;;;3.67;2.00;;;;;22.43;71.17;99399.19;5050573;28;45560;-64
2022/04/08 08:29:51;;;;;;;;;3.33;1.00;;;;;22.42;71.41;99384.84;5051954;28;45776;-66
2022/04/08 08:32:16;;;;;;;;;4.00;2.00;;;;;22.43;71.50;99381.22;5056501;28;46630;-65
2022/04/08 08:34:42;;;;;;;;;2.00;2.00;;;;;22.45;72.18;99402.63;5049231;28;45545;-64
2022/04/08 08:37:07;;;;;;;;;2.00;2.00;;;;;22.45;71.86;99391.88;5042294;28;45502;-68
2022/04/08 08:39:33;;;;;;;;;3.00;2.00;;;;;22.42;72.37;99374.06;5054485;28;45494;-66
2022/04/08 08:41:58;;;;;;;;;2.67;2.00;;;;;22.43;72.49;99361.53;5054869;28;46588;-65
2022/04/08 08:44:24;;;;;;;;;3.00;2.00;;;;;22.45;72.36;99364.97;5039276;28;45446;-65
2022/04/08 08:46:50;;;;;;;;;2.00;2.00;;;;;22.45;72.57;99371.22;5044229;28;45451;-66
2022/04/08 08:49:19;;;;;;;;;1.00;1.00;;;;;22.44;72.95;99369.50;5055666;28;45396;-64
2022/04/08 08:51:52;;;;;;;;;4.00;3.00;;;;;22.45;72.92;99364.97;5055434;28;46785;-64
2022/04/08 08:54:17;;;;;;;;;3.00;1.33;;;;;22.44;73.15;99347.09;5028560;28;45388;-64
2022/04/08 08:56:43;;;;;;;;;1.67;1.67;;;;;22.45;73.28;99338.06;5045772;28;45397;-65
2022/04/08 08:59:10;;;;;;;;;2.00;2.00;;;;;22.44;73.44;99314.84;5044772;28;45517;-67
2022/04/08 09:01:35;;;;;;;;;2.00;1.00;;;;;22.44;73.44;99304.94;5054984;28;47697;-64
2022/04/08 09:04:01;;;;;;;;;2.00;2.00;;;;;22.45;73.50;99313.88;5046345;28;45379;-64
2022/04/08 09:06:26;;;;;;;;;2.33;1.00;;;;;22.45;73.62;99289.66;5053852;28;45592;-70
2022/04/08 09:08:57;;;;;;;;;1.33;1.33;;;;;22.47;73.94;99285.03;5037883;28;45520;-66
2022/04/08 09:11:27;;;;;;;;;3.00;1.67;;;;;22.44;73.34;99259.22;5056426;28;46278;-64
2022/04/08 09:13:54;;;;;;;;;3.00;0.00;;;;;22.46;73.77;99270.72;5049249;28;45379;-64
2022/04/08 09:16:29;;;;;;;;;2.00;2.00;;;;;22.45;73.67;99303.97;5053294;28;45968;-65
2022/04/08 09:18:55;;;;;;;;;3.67;2.00;;;;;22.44;74.20;99285.25;5048335;28;45519;-67
2022/04/08 09:21:22;;;;;;;;;3.67;2.00;;;;;22.47;74.11;99272.44;5044601;28;46337;-65
2022/04/08 09:23:47;;;;;;;;;2.00;2.00;;;;;22.46;73.98;99256.41;5031267;28;45572;-62
2022/04/08 09:26:14;;;;;;;;;2.00;2.00;;;;;22.46;74.38;99275.25;5035381;28;45488;-67
2022/04/08 09:28:43;;;;;;;;;2.00;2.00;;;;;22.46;74.41;99299.44;5050506;28;45620;-67
2022/04/08 09:31:19;;;;;;;;;2.00;2.00;;;;;22.45;74.63;99260.94;5049856;28;45494;-66
2022/04/08 09:33:49;;;;;;;;;1.67;1.67;;;;;22.44;74.06;99226.94;5049463;28;45349;-66
2022/04/08 09:36:29;;;;;;;;;1.00;1.00;;;;;22.45;74.33;99320.09;5040655;28;45408;-64
2022/04/08 09:38:54;;;;;;;;;2.00;2.00;;;;;22.42;74.64;99362.44;5055332;28;45574;-64
2022/04/08 09:41:20;;;;;;;;;1.00;1.00;;;;;22.43;74.75;99302.34;5051881;28;48485;-68
2022/04/08 09:43:45;;;;;;;;;2.00;2.00;;;;;22.45;74.63;99285.13;5024455;28;45455;-64
2022/04/08 09:46:14;;;;;;;;;2.33;1.67;;;;;22.46;74.58;99303.00;5044854;28;45609;-63
2022/04/08 09:48:41;;;;;;;;;1.00;1.00;;;;;22.46;74.68;99312.91;5031189;28;45565;-64
2022/04/08 09:51:09;;;;;;;;;1.00;1.00;;;;;22.44;74.49;99301.38;5050983;28;45912;-63
2022/04/08 09:53:36;;;;;;;;;1.00;1.00;;;;;22.43;74.80;99284.38;5045129;28;46842;-68
2022/04/08 09:56:03;;;;;;;;;1.00;1.00;;;;;22.45;74.98;99292.34;5044969;28;45378;-64
2022/04/08 09:58:33;;;;;;;;;1.00;1.00;;;;;22.42;75.14;99312.22;5026349;28;45468;-63
2022/04/08 10:00:58;;;;;;;;;3.67;2.00;;;;;22.42;75.47;99312.22;5042648;28;46903;-63
2022/04/08 10:03:24;;;;;;;;;2.00;2.00;;;;;22.43;75.49;99319.34;5038611;28;53552;-65
2022/04/08 10:05:50;;;;;;;;;1.00;1.00;;;;;22.45;75.43;99321.94;5033530;28;45472;-64
2022/04/08 10:08:15;;;;;;;;;1.33;0.00;;;;;22.43;75.15;99335.47;5048048;28;45626;-68
2022/04/08 10:10:48;;;;;;;;;1.00;1.00;;;;;22.44;75.68;99347.97;5037779;28;52400;-66
2022/04/08 10:13:35;;;;;;;;;1.00;1.00;;;;;22.47;75.74;99338.84;5041498;28;45325;-64
2022/04/08 10:16:07;;;;;;;;;2.00;1.00;;;;;22.45;75.88;99306.66;5042764;28;45438;-64
2022/04/08 10:18:38;;;;;;;;;1.33;1.33;;;;;22.48;75.47;99289.47;5046262;28;45510;-65
2022/04/08 10:21:04;;;;;;;;;1.00;1.00;;;;;22.47;75.70;99255.44;5051896;28;47367;-63
2022/04/08 10:23:57;;;;;;;;;4.67;2.00;;;;;22.49;75.77;99253.53;5041093;28;45532;-64
2022/04/08 10:26:24;;;;;;;;;2.67;2.00;;;;;22.46;75.84;99246.50;5042833;28;45499;-66
2022/04/08 10:28:51;;;;;;;;;3.33;3.33;;;;;22.47;75.94;99223.16;5043401;28;45565;-64
2022/04/08 10:31:22;;;;;;;;;2.33;2.00;;;;;22.51;75.68;99196.94;5047929;28;47551;-68
2022/04/08 10:33:59;;;;;;;;;4.00;2.00;;;;;22.48;75.92;99163.91;5043451;28;45456;-65
2022/04/08 10:36:36;;;;;;;;;5.67;2.00;;;;;22.51;75.94;99195.13;5047043;28;45953;-64
2022/04/08 10:39:19;;;;;;;;;3.00;2.00;;;;;22.52;75.93;99150.25;5033055;28;45672;-65
2022/04/08 10:41:51;;;;;;;;;1.33;1.33;;;;;22.52;76.15;99117.97;5048742;28;45684;-70
2022/04/08 10:44:34;;;;;;;;;2.00;2.00;;;;;22.49;75.90;99125.28;5025759;28;45367;-67
2022/04/08 10:47:02;;;;;;;;;3.00;1.33;;;;;22.49;75.95;99137.88;5054300;28;45513;-66
2022/04/08 10:49:28;;;;;;;;;4.33;2.00;;;;;22.51;76.35;99170.91;5028649;28;45561;-67
2022/04/08 10:51:53;;;;;;;;;4.33;2.00;;;;;22.53;76.93;99195.00;5051182;28;49983;-66
2022/04/08 10:54:20;;;;;;;;;3.33;2.00;;;;;22.54;76.72;99242.50;5047149;28;45522;-67
2022/04/08 10:56:58;;;;;;;;;4.00;3.00;;;;;22.57;76.93;99239.59;5047797;28;45605;-69
2022/04/08 10:59:27;;;;;;;;;2.33;1.00;;;;;22.60;77.07;99178.41;5048617;28;45633;-68
2022/04/08 11:01:59;;;;;;;;;3.00;2.00;;;;;22.59;76.66;99151.59;5047804;28;47583;-66
2022/04/08 11:04:27;;;;;;;;;3.33;1.67;;;;;22.62;76.88;99170.22;5044442;28;45542;-67
2022/04/08 11:06:52;;;;;;;;;2.00;2.00;;;;;22.65;77.08;99210.38;5046206;28;45553;-65
2022/04/08 11:09:18;;;;;;;;;2.00;2.00;;;;;22.68;76.69;99175.19;5051000;28;45532;-66
2022/04/08 11:11:46;;;;;;;;;2.00;2.00;;;;;22.69;76.73;99168.84;5046856;28;46465;-66
2022/04/08 11:14:12;;;;;;;;;3.00;1.00;;;;;22.69;76.79;99139.25;5043999;28;45578;-66
2022/04/08 11:16:38;;;;;;;;;1.00;1.00;;;;;22.72;76.54;99164.13;5048292;28;45487;-66
2022/04/08 11:19:06;;;;;;;;;1.67;1.67;;;;;22.73;76.51;99148.84;5036945;28;45522;-66
2022/04/08 11:21:34;;;;;;;;;1.00;1.00;;;;;22.73;76.57;99138.94;5027970;28;47664;-65
2022/04/08 11:24:04;;;;;;;;;1.00;1.00;;;;;22.71;76.34;99132.81;5055118;28;45510;-68
2022/04/08 11:26:30;;;;;;;;;2.00;0.33;;;;;22.74;76.55;99135.31;5053120;28;45446;-65
2022/04/08 11:29:10;;;;;;;;;2.00;2.00;;;;;22.75;76.36;99133.47;5050627;28;45505;-69
2022/04/08 11:31:39;;;;;;;;;1.33;1.00;;;;;22.75;76.37;99130.78;5051301;28;46530;-65